sensor_id;sensor_type;location;lat;lon;timestamp;pressure;altitude;pressure_sealevel;temperature;humidity
7376;BME280;3728;42.266;24.944;2023-11-19T00:00:15;99228.59;;;7.53;70.40
7376;BME280;3728;42.266;24.944;2023-11-19T00:02:42;99217.09;;;7.68;69.53
7376;BME280;3728;42.266;24.944;2023-11-19T00:05:10;99230.34;;;7.72;69.75
7376;BME280;3728;42.266;24.944;2023-11-19T00:07:40;99234.81;;;7.39;71.92
7376;BME280;3728;42.266;24.944;2023-11-19T00:10:12;99226.38;;;7.74;69.79
7376;BME280;3728;42.266;24.944;2023-11-19T00:12:42;99232.53;;;7.51;71.92
7376;BME280;3728;42.266;24.944;2023-11-19T00:15:11;99235.59;;;7.39;72.03
7376;BME280;3728;42.266;24.944;2023-11-19T00:17:39;99233.63;;;7.31;72.44
7376;BME280;3728;42.266;24.944;2023-11-19T00:20:07;99244.94;;;7.40;72.97
7376;BME280;3728;42.266;24.944;2023-11-19T00:22:38;99244.22;;;7.35;72.25
7376;BME280;3728;42.266;24.944;2023-11-19T00:25:15;99248.53;;;7.26;73.19
7376;BME280;3728;42.266;24.944;2023-11-19T00:27:42;99249.16;;;7.36;72.63
7376;BME280;3728;42.266;24.944;2023-11-19T00:30:11;99245.09;;;7.30;72.23
7376;BME280;3728;42.266;24.944;2023-11-19T00:32:42;99253.00;;;7.57;70.80
7376;BME280;3728;42.266;24.944;2023-11-19T00:35:10;99251.41;;;7.43;71.08
7376;BME280;3728;42.266;24.944;2023-11-19T00:37:40;99246.91;;;7.48;71.50
7376;BME280;3728;42.266;24.944;2023-11-19T00:40:09;99244.09;;;7.58;70.16
7376;BME280;3728;42.266;24.944;2023-11-19T00:42:38;99253.44;;;7.46;70.50
7376;BME280;3728;42.266;24.944;2023-11-19T00:45:05;99248.03;;;7.42;70.62
7376;BME280;3728;42.266;24.944;2023-11-19T00:47:36;99256.91;;;7.41;70.29
7376;BME280;3728;42.266;24.944;2023-11-19T00:50:04;99260.84;;;7.39;70.51
7376;BME280;3728;42.266;24.944;2023-11-19T00:52:31;99258.78;;;7.68;69.71
7376;BME280;3728;42.266;24.944;2023-11-19T00:54:59;99249.69;;;7.52;70.11
7376;BME280;3728;42.266;24.944;2023-11-19T00:57:26;99256.25;;;7.49;69.99
7376;BME280;3728;42.266;24.944;2023-11-19T00:59:53;99246.56;;;7.36;70.82
7376;BME280;3728;42.266;24.944;2023-11-19T01:02:21;99245.25;;;7.52;70.04
7376;BME280;3728;42.266;24.944;2023-11-19T01:04:48;99240.28;;;7.37;71.38
7376;BME280;3728;42.266;24.944;2023-11-19T01:07:16;99247.09;;;7.52;69.82
7376;BME280;3728;42.266;24.944;2023-11-19T01:09:43;99245.78;;;7.36;71.04
7376;BME280;3728;42.266;24.944;2023-11-19T01:12:10;99255.78;;;7.29;71.80
7376;BME280;3728;42.266;24.944;2023-11-19T01:14:38;99260.69;;;7.49;70.99
7376;BME280;3728;42.266;24.944;2023-11-19T01:17:05;99263.09;;;7.45;70.01
7376;BME280;3728;42.266;24.944;2023-11-19T01:19:34;99270.19;;;7.40;70.46
7376;BME280;3728;42.266;24.944;2023-11-19T01:22:01;99279.94;;;7.34;70.99
7376;BME280;3728;42.266;24.944;2023-11-19T01:24:28;99272.63;;;7.36;71.42
7376;BME280;3728;42.266;24.944;2023-11-19T01:26:58;99269.78;;;7.33;71.10
7376;BME280;3728;42.266;24.944;2023-11-19T01:29:26;99281.94;;;7.56;69.09
7376;BME280;3728;42.266;24.944;2023-11-19T01:31:54;99277.09;;;7.49;69.52
7376;BME280;3728;42.266;24.944;2023-11-19T01:34:21;99275.59;;;7.62;69.37
7376;BME280;3728;42.266;24.944;2023-11-19T01:36:49;99277.50;;;7.56;68.69
7376;BME280;3728;42.266;24.944;2023-11-19T01:39:16;99284.00;;;7.40;69.31
7376;BME280;3728;42.266;24.944;2023-11-19T01:41:44;99291.19;;;7.48;69.78
7376;BME280;3728;42.266;24.944;2023-11-19T01:44:11;99294.13;;;7.42;70.28
7376;BME280;3728;42.266;24.944;2023-11-19T01:46:44;99274.94;;;7.38;70.68
7376;BME280;3728;42.266;24.944;2023-11-19T01:49:14;99281.94;;;7.56;69.01
7376;BME280;3728;42.266;24.944;2023-11-19T01:51:42;99277.69;;;7.46;68.64
7376;BME280;3728;42.266;24.944;2023-11-19T01:54:09;99284.31;;;7.39;69.66
7376;BME280;3728;42.266;24.944;2023-11-19T01:56:38;99279.97;;;7.48;69.15
7376;BME280;3728;42.266;24.944;2023-11-19T01:59:09;99283.44;;;7.43;69.39
7376;BME280;3728;42.266;24.944;2023-11-19T02:01:38;99283.97;;;7.59;69.21
7376;BME280;3728;42.266;24.944;2023-11-19T02:04:08;99286.50;;;7.64;68.16
7376;BME280;3728;42.266;24.944;2023-11-19T02:06:39;99288.91;;;7.42;69.44
7376;BME280;3728;42.266;24.944;2023-11-19T02:09:08;99288.19;;;7.41;69.76
7376;BME280;3728;42.266;24.944;2023-11-19T02:11:36;99277.81;;;7.36;70.05
7376;BME280;3728;42.266;24.944;2023-11-19T02:14:06;99279.31;;;7.56;69.31
7376;BME280;3728;42.266;24.944;2023-11-19T02:16:34;99273.09;;;7.38;70.98
7376;BME280;3728;42.266;24.944;2023-11-19T02:19:01;99268.13;;;7.23;72.48
7376;BME280;3728;42.266;24.944;2023-11-19T02:21:30;99271.41;;;7.29;72.09
7376;BME280;3728;42.266;24.944;2023-11-19T02:23:57;99273.66;;;7.35;72.06
7376;BME280;3728;42.266;24.944;2023-11-19T02:26:52;99291.22;;;7.30;72.24
7376;BME280;3728;42.266;24.944;2023-11-19T02:29:22;99283.81;;;7.37;72.81
7376;BME280;3728;42.266;24.944;2023-11-19T02:31:50;99293.06;;;7.62;71.19
7376;BME280;3728;42.266;24.944;2023-11-19T02:34:17;99292.75;;;7.63;71.06
7376;BME280;3728;42.266;24.944;2023-11-19T02:36:44;99292.09;;;7.57;71.66
7376;BME280;3728;42.266;24.944;2023-11-19T02:39:13;99303.56;;;7.56;71.56
7376;BME280;3728;42.266;24.944;2023-11-19T02:41:41;99306.34;;;7.46;71.64
7376;BME280;3728;42.266;24.944;2023-11-19T02:44:09;99300.38;;;7.59;72.02
7376;BME280;3728;42.266;24.944;2023-11-19T02:46:36;99301.34;;;7.31;72.68
7376;BME280;3728;42.266;24.944;2023-11-19T02:49:03;99304.22;;;7.48;72.33
7376;BME280;3728;42.266;24.944;2023-11-19T02:51:31;99311.25;;;7.48;71.57
7376;BME280;3728;42.266;24.944;2023-11-19T02:53:58;99317.81;;;7.45;71.31
7376;BME280;3728;42.266;24.944;2023-11-19T02:56:25;99312.53;;;7.32;71.07
7376;BME280;3728;42.266;24.944;2023-11-19T02:58:53;99321.13;;;7.32;71.17
7376;BME280;3728;42.266;24.944;2023-11-19T03:01:22;99328.66;;;7.34;70.34
7376;BME280;3728;42.266;24.944;2023-11-19T03:04:00;99328.00;;;7.42;70.46
7376;BME280;3728;42.266;24.944;2023-11-19T03:06:30;99323.09;;;7.40;70.11
7376;BME280;3728;42.266;24.944;2023-11-19T03:08:57;99326.03;;;7.52;69.36
7376;BME280;3728;42.266;24.944;2023-11-19T03:11:24;99328.28;;;7.40;69.32
7376;BME280;3728;42.266;24.944;2023-11-19T03:13:52;99335.56;;;7.43;69.34
7376;BME280;3728;42.266;24.944;2023-11-19T03:16:19;99336.88;;;7.41;69.41
7376;BME280;3728;42.266;24.944;2023-11-19T03:18:46;99339.06;;;7.52;68.55
7376;BME280;3728;42.266;24.944;2023-11-19T03:21:14;99337.59;;;7.46;67.47
7376;BME280;3728;42.266;24.944;2023-11-19T03:23:41;99340.47;;;7.45;68.03
7376;BME280;3728;42.266;24.944;2023-11-19T03:26:13;99340.09;;;7.51;67.80
7376;BME280;3728;42.266;24.944;2023-11-19T03:28:40;99360.09;;;7.56;66.68
7376;BME280;3728;42.266;24.944;2023-11-19T03:31:07;99353.22;;;7.46;67.21
7376;BME280;3728;42.266;24.944;2023-11-19T03:33:35;99330.97;;;7.35;67.03
7376;BME280;3728;42.266;24.944;2023-11-19T03:36:05;99322.72;;;7.28;67.82
7376;BME280;3728;42.266;24.944;2023-11-19T03:38:32;99317.31;;;7.25;68.17
7376;BME280;3728;42.266;24.944;2023-11-19T03:41:00;99314.91;;;7.28;67.63
7376;BME280;3728;42.266;24.944;2023-11-19T03:43:27;99310.19;;;7.30;67.54
7376;BME280;3728;42.266;24.944;2023-11-19T03:45:54;99305.84;;;7.26;66.94
7376;BME280;3728;42.266;24.944;2023-11-19T03:48:22;99306.91;;;7.25;67.67
7376;BME280;3728;42.266;24.944;2023-11-19T03:50:49;99315.84;;;7.19;68.48
7376;BME280;3728;42.266;24.944;2023-11-19T03:53:17;99311.06;;;7.07;69.33
7376;BME280;3728;42.266;24.944;2023-11-19T03:55:45;99323.88;;;7.22;69.35
7376;BME280;3728;42.266;24.944;2023-11-19T03:58:12;99325.19;;;7.38;69.09
7376;BME280;3728;42.266;24.944;2023-11-19T04:00:40;99336.53;;;7.47;68.85
7376;BME280;3728;42.266;24.944;2023-11-19T04:03:07;99336.09;;;7.40;70.30
7376;BME280;3728;42.266;24.944;2023-11-19T04:05:36;99344.34;;;7.47;70.38
7376;BME280;3728;42.266;24.944;2023-11-19T04:08:03;99351.19;;;7.43;71.23
7376;BME280;3728;42.266;24.944;2023-11-19T04:10:31;99362.50;;;7.15;72.18
7376;BME280;3728;42.266;24.944;2023-11-19T04:12:58;99360.69;;;7.34;71.58
7376;BME280;3728;42.266;24.944;2023-11-19T04:15:25;99371.84;;;7.16;73.10
7376;BME280;3728;42.266;24.944;2023-11-19T04:17:53;99365.69;;;7.31;72.90
7376;BME280;3728;42.266;24.944;2023-11-19T04:20:20;99358.34;;;7.51;70.17
7376;BME280;3728;42.266;24.944;2023-11-19T04:22:50;99361.13;;;7.41;70.72
7376;BME280;3728;42.266;24.944;2023-11-19T04:25:18;99351.03;;;7.35;69.74
7376;BME280;3728;42.266;24.944;2023-11-19T04:27:46;99340.91;;;7.33;70.67
7376;BME280;3728;42.266;24.944;2023-11-19T04:30:14;99337.66;;;7.41;71.51
7376;BME280;3728;42.266;24.944;2023-11-19T04:32:42;99347.38;;;7.54;69.79
7376;BME280;3728;42.266;24.944;2023-11-19T04:35:09;99346.03;;;7.38;70.44
7376;BME280;3728;42.266;24.944;2023-11-19T04:37:37;99343.56;;;7.28;70.90
7376;BME280;3728;42.266;24.944;2023-11-19T04:40:08;99359.13;;;7.52;69.55
7376;BME280;3728;42.266;24.944;2023-11-19T04:42:36;99339.50;;;7.41;69.60
7376;BME280;3728;42.266;24.944;2023-11-19T04:45:04;99347.03;;;7.24;69.71
7376;BME280;3728;42.266;24.944;2023-11-19T04:47:33;99335.34;;;7.21;70.42
7376;BME280;3728;42.266;24.944;2023-11-19T04:50:01;99326.47;;;7.22;70.12
7376;BME280;3728;42.266;24.944;2023-11-19T04:52:28;99322.31;;;7.03;71.27
7376;BME280;3728;42.266;24.944;2023-11-19T04:54:56;99329.13;;;6.99;71.52
7376;BME280;3728;42.266;24.944;2023-11-19T04:57:23;99331.16;;;6.83;72.50
7376;BME280;3728;42.266;24.944;2023-11-19T04:59:51;99320.91;;;6.92;71.74
7376;BME280;3728;42.266;24.944;2023-11-19T05:02:18;99333.63;;;6.93;72.17
7376;BME280;3728;42.266;24.944;2023-11-19T05:04:45;99322.53;;;6.87;71.80
7376;BME280;3728;42.266;24.944;2023-11-19T05:07:14;99331.50;;;6.76;72.28
7376;BME280;3728;42.266;24.944;2023-11-19T05:09:41;99320.66;;;6.69;72.54
7376;BME280;3728;42.266;24.944;2023-11-19T05:12:09;99321.34;;;6.56;73.28
7376;BME280;3728;42.266;24.944;2023-11-19T05:14:39;99323.00;;;6.47;73.60
7376;BME280;3728;42.266;24.944;2023-11-19T05:17:06;99318.94;;;6.60;73.55
7376;BME280;3728;42.266;24.944;2023-11-19T05:19:34;99310.94;;;6.56;72.05
7376;BME280;3728;42.266;24.944;2023-11-19T05:22:02;99311.81;;;6.70;71.65
7376;BME280;3728;42.266;24.944;2023-11-19T05:24:31;99329.41;;;6.55;73.04
7376;BME280;3728;42.266;24.944;2023-11-19T05:26:58;99332.84;;;6.50;72.78
7376;BME280;3728;42.266;24.944;2023-11-19T05:29:26;99338.31;;;6.49;72.45
7376;BME280;3728;42.266;24.944;2023-11-19T05:31:54;99332.72;;;6.60;72.75
7376;BME280;3728;42.266;24.944;2023-11-19T05:34:22;99338.31;;;6.49;72.41
7376;BME280;3728;42.266;24.944;2023-11-19T05:36:49;99346.06;;;6.54;71.71
7376;BME280;3728;42.266;24.944;2023-11-19T05:39:17;99346.81;;;6.59;72.54
7376;BME280;3728;42.266;24.944;2023-11-19T05:41:48;99338.81;;;6.51;71.77
7376;BME280;3728;42.266;24.944;2023-11-19T05:44:17;99346.63;;;6.74;70.36
7376;BME280;3728;42.266;24.944;2023-11-19T05:46:45;99369.97;;;6.56;71.18
7376;BME280;3728;42.266;24.944;2023-11-19T05:49:12;99382.66;;;6.62;70.66
7376;BME280;3728;42.266;24.944;2023-11-19T05:51:41;99364.19;;;6.64;70.64
7376;BME280;3728;42.266;24.944;2023-11-19T05:54:09;99378.47;;;6.66;70.96
7376;BME280;3728;42.266;24.944;2023-11-19T05:56:37;99363.16;;;6.60;71.29
7376;BME280;3728;42.266;24.944;2023-11-19T05:59:05;99370.72;;;6.61;70.72
7376;BME280;3728;42.266;24.944;2023-11-19T06:01:42;99366.97;;;6.44;71.53
7376;BME280;3728;42.266;24.944;2023-11-19T06:04:09;99351.22;;;6.35;72.02
7376;BME280;3728;42.266;24.944;2023-11-19T06:06:40;99367.19;;;6.52;71.93
7376;BME280;3728;42.266;24.944;2023-11-19T06:09:07;99380.09;;;6.57;72.57
7376;BME280;3728;42.266;24.944;2023-11-19T06:11:38;99373.56;;;6.60;72.45
7376;BME280;3728;42.266;24.944;2023-11-19T06:14:06;99375.91;;;6.61;72.16
7376;BME280;3728;42.266;24.944;2023-11-19T06:16:34;99390.66;;;6.71;72.25
7376;BME280;3728;42.266;24.944;2023-11-19T06:19:04;99394.25;;;6.75;71.13
7376;BME280;3728;42.266;24.944;2023-11-19T06:21:31;99392.03;;;6.63;72.63
7376;BME280;3728;42.266;24.944;2023-11-19T06:23:58;99400.72;;;6.77;72.34
7376;BME280;3728;42.266;24.944;2023-11-19T06:26:26;99393.25;;;6.95;71.32
7376;BME280;3728;42.266;24.944;2023-11-19T06:28:54;99417.81;;;7.07;71.28
7376;BME280;3728;42.266;24.944;2023-11-19T06:31:21;99428.09;;;7.17;71.02
7376;BME280;3728;42.266;24.944;2023-11-19T06:33:49;99438.22;;;7.19;70.19
7376;BME280;3728;42.266;24.944;2023-11-19T06:36:16;99432.91;;;7.29;69.75
7376;BME280;3728;42.266;24.944;2023-11-19T06:38:44;99421.16;;;7.31;69.32
7376;BME280;3728;42.266;24.944;2023-11-19T06:41:12;99422.06;;;7.40;69.19
7376;BME280;3728;42.266;24.944;2023-11-19T06:43:39;99424.13;;;7.43;68.54
7376;BME280;3728;42.266;24.944;2023-11-19T06:46:16;99423.66;;;7.60;67.98
7376;BME280;3728;42.266;24.944;2023-11-19T06:48:44;99432.66;;;7.86;66.18
7376;BME280;3728;42.266;24.944;2023-11-19T06:51:12;99440.41;;;7.91;65.26
7376;BME280;3728;42.266;24.944;2023-11-19T06:53:39;99452.00;;;7.99;64.24
7376;BME280;3728;42.266;24.944;2023-11-19T06:56:23;99458.06;;;7.94;64.36
7376;BME280;3728;42.266;24.944;2023-11-19T06:58:51;99461.16;;;7.96;63.97
7376;BME280;3728;42.266;24.944;2023-11-19T07:01:19;99459.47;;;8.05;63.26
7376;BME280;3728;42.266;24.944;2023-11-19T07:03:47;99459.34;;;7.97;64.43
7376;BME280;3728;42.266;24.944;2023-11-19T07:06:16;99460.53;;;8.04;63.89
7376;BME280;3728;42.266;24.944;2023-11-19T07:08:44;99461.31;;;8.05;63.08
7376;BME280;3728;42.266;24.944;2023-11-19T07:11:16;99453.97;;;8.07;64.41
7376;BME280;3728;42.266;24.944;2023-11-19T07:13:44;99476.53;;;8.49;61.46
7376;BME280;3728;42.266;24.944;2023-11-19T07:16:15;99478.41;;;8.30;61.22
7376;BME280;3728;42.266;24.944;2023-11-19T07:18:44;99482.22;;;8.37;61.73
7376;BME280;3728;42.266;24.944;2023-11-19T07:21:11;99486.41;;;8.52;61.55
7376;BME280;3728;42.266;24.944;2023-11-19T07:23:39;99491.25;;;8.58;60.24
7376;BME280;3728;42.266;24.944;2023-11-19T07:26:08;99478.28;;;8.53;60.91
7376;BME280;3728;42.266;24.944;2023-11-19T07:28:36;99488.09;;;8.75;60.23
7376;BME280;3728;42.266;24.944;2023-11-19T07:31:04;99500.28;;;8.66;60.56
7376;BME280;3728;42.266;24.944;2023-11-19T07:33:34;99504.25;;;8.77;60.64
7376;BME280;3728;42.266;24.944;2023-11-19T07:36:02;99508.53;;;9.00;60.18
7376;BME280;3728;42.266;24.944;2023-11-19T07:38:32;99502.56;;;9.27;58.87
7376;BME280;3728;42.266;24.944;2023-11-19T07:41:00;99512.41;;;9.43;57.43
7376;BME280;3728;42.266;24.944;2023-11-19T07:43:27;99510.31;;;9.32;57.70
7376;BME280;3728;42.266;24.944;2023-11-19T07:45:55;99514.81;;;9.40;57.52
7376;BME280;3728;42.266;24.944;2023-11-19T07:48:23;99523.34;;;9.45;56.68
7376;BME280;3728;42.266;24.944;2023-11-19T07:50:52;99529.28;;;9.51;56.30
7376;BME280;3728;42.266;24.944;2023-11-19T07:53:20;99528.28;;;9.47;56.19
7376;BME280;3728;42.266;24.944;2023-11-19T07:55:47;99531.56;;;9.52;57.08
7376;BME280;3728;42.266;24.944;2023-11-19T07:58:15;99548.28;;;9.92;55.72
7376;BME280;3728;42.266;24.944;2023-11-19T08:00:43;99547.91;;;9.85;55.47
7376;BME280;3728;42.266;24.944;2023-11-19T08:03:12;99549.59;;;10.03;55.38
7376;BME280;3728;42.266;24.944;2023-11-19T08:05:40;99545.84;;;9.96;55.45
7376;BME280;3728;42.266;24.944;2023-11-19T08:08:08;99540.53;;;9.87;56.25
7376;BME280;3728;42.266;24.944;2023-11-19T08:10:35;99534.69;;;10.04;55.42
7376;BME280;3728;42.266;24.944;2023-11-19T08:13:04;99533.50;;;10.10;54.58
7376;BME280;3728;42.266;24.944;2023-11-19T08:15:31;99545.63;;;10.19;54.58
7376;BME280;3728;42.266;24.944;2023-11-19T08:18:00;99547.00;;;10.17;54.40
7376;BME280;3728;42.266;24.944;2023-11-19T08:20:30;99550.81;;;10.33;54.63
7376;BME280;3728;42.266;24.944;2023-11-19T08:22:59;99550.44;;;10.48;53.59
7376;BME280;3728;42.266;24.944;2023-11-19T08:25:29;99545.03;;;10.45;54.45
7376;BME280;3728;42.266;24.944;2023-11-19T08:27:56;99551.75;;;10.37;53.62
7376;BME280;3728;42.266;24.944;2023-11-19T08:30:24;99534.88;;;10.43;53.53
7376;BME280;3728;42.266;24.944;2023-11-19T08:32:51;99552.53;;;10.38;53.97
7376;BME280;3728;42.266;24.944;2023-11-19T08:35:19;99555.31;;;10.19;53.21
7376;BME280;3728;42.266;24.944;2023-11-19T08:37:46;99551.56;;;10.11;53.72
7376;BME280;3728;42.266;24.944;2023-11-19T08:40:14;99554.38;;;10.15;53.46
7376;BME280;3728;42.266;24.944;2023-11-19T08:42:41;99566.66;;;10.14;53.48
7376;BME280;3728;42.266;24.944;2023-11-19T08:45:10;99553.50;;;9.92;54.17
7376;BME280;3728;42.266;24.944;2023-11-19T08:47:39;99553.66;;;10.09;52.92
7376;BME280;3728;42.266;24.944;2023-11-19T08:50:08;99550.72;;;10.24;53.43
7376;BME280;3728;42.266;24.944;2023-11-19T08:52:38;99559.91;;;10.36;52.46
7376;BME280;3728;42.266;24.944;2023-11-19T08:55:08;99568.06;;;10.56;52.61
7376;BME280;3728;42.266;24.944;2023-11-19T08:57:38;99566.00;;;10.67;52.06
7376;BME280;3728;42.266;24.944;2023-11-19T09:00:06;99577.22;;;10.67;52.18
7376;BME280;3728;42.266;24.944;2023-11-19T09:02:37;99570.00;;;10.95;51.32
7376;BME280;3728;42.266;24.944;2023-11-19T09:05:06;99568.44;;;10.94;51.36
7376;BME280;3728;42.266;24.944;2023-11-19T09:07:40;99564.91;;;10.90;51.17
7376;BME280;3728;42.266;24.944;2023-11-19T09:10:08;99569.94;;;10.86;50.73
7376;BME280;3728;42.266;24.944;2023-11-19T09:12:37;99563.00;;;10.82;51.01
7376;BME280;3728;42.266;24.944;2023-11-19T09:15:09;99563.94;;;10.86;50.40
7376;BME280;3728;42.266;24.944;2023-11-19T09:17:41;99566.63;;;10.72;50.66
7376;BME280;3728;42.266;24.944;2023-11-19T09:20:09;99558.06;;;10.58;51.21
7376;BME280;3728;42.266;24.944;2023-11-19T09:22:40;99552.16;;;10.75;51.64
7376;BME280;3728;42.266;24.944;2023-11-19T09:25:08;99566.28;;;10.65;51.29
7376;BME280;3728;42.266;24.944;2023-11-19T09:27:36;99559.59;;;10.81;51.13
7376;BME280;3728;42.266;24.944;2023-11-19T09:30:05;99566.06;;;10.84;51.47
7376;BME280;3728;42.266;24.944;2023-11-19T09:32:32;99566.19;;;11.01;50.56
7376;BME280;3728;42.266;24.944;2023-11-19T09:35:01;99558.13;;;10.97;50.63
7376;BME280;3728;42.266;24.944;2023-11-19T09:37:30;99559.31;;;11.14;50.14
7376;BME280;3728;42.266;24.944;2023-11-19T09:39:57;99567.00;;;11.10;50.09
7376;BME280;3728;42.266;24.944;2023-11-19T09:42:25;99546.63;;;11.07;50.74
7376;BME280;3728;42.266;24.944;2023-11-19T09:44:54;99547.28;;;11.13;49.75
7376;BME280;3728;42.266;24.944;2023-11-19T09:47:25;99537.59;;;11.22;50.10
7376;BME280;3728;42.266;24.944;2023-11-19T09:54:20;99557.06;;;11.38;49.11
7376;BME280;3728;42.266;24.944;2023-11-19T09:56:47;99564.22;;;11.54;48.61
7376;BME280;3728;42.266;24.944;2023-11-19T09:59:16;99566.97;;;11.49;48.56
7376;BME280;3728;42.266;24.944;2023-11-19T10:01:45;99554.81;;;11.53;49.28
7376;BME280;3728;42.266;24.944;2023-11-19T10:04:15;99557.69;;;11.74;48.66
7376;BME280;3728;42.266;24.944;2023-11-19T10:06:43;99551.25;;;11.49;49.28
7376;BME280;3728;42.266;24.944;2023-11-19T10:09:12;99553.84;;;11.41;48.69
7376;BME280;3728;42.266;24.944;2023-11-19T10:11:43;99557.84;;;11.38;48.35
7376;BME280;3728;42.266;24.944;2023-11-19T10:14:11;99545.66;;;11.34;49.43
7376;BME280;3728;42.266;24.944;2023-11-19T10:16:40;99539.59;;;11.16;48.61
7376;BME280;3728;42.266;24.944;2023-11-19T10:19:08;99543.53;;;11.05;49.08
7376;BME280;3728;42.266;24.944;2023-11-19T10:21:40;99530.38;;;10.88;49.52
7376;BME280;3728;42.266;24.944;2023-11-19T10:24:08;99536.31;;;11.11;49.15
7376;BME280;3728;42.266;24.944;2023-11-19T10:26:36;99507.50;;;11.19;48.53
7376;BME280;3728;42.266;24.944;2023-11-19T10:29:04;99519.72;;;11.24;47.99
7376;BME280;3728;42.266;24.944;2023-11-19T10:31:31;99515.25;;;11.24;48.14
7376;BME280;3728;42.266;24.944;2023-11-19T10:33:59;99511.72;;;11.29;48.25
7376;BME280;3728;42.266;24.944;2023-11-19T10:36:39;99502.66;;;11.43;48.43
7376;BME280;3728;42.266;24.944;2023-11-19T10:39:10;99501.09;;;11.34;47.99
7376;BME280;3728;42.266;24.944;2023-11-19T10:41:38;99498.84;;;11.58;47.92
7376;BME280;3728;42.266;24.944;2023-11-19T10:44:06;99506.75;;;11.75;47.90
7376;BME280;3728;42.266;24.944;2023-11-19T10:46:40;99500.91;;;12.12;47.17
7376;BME280;3728;42.266;24.944;2023-11-19T10:49:09;99498.72;;;12.23;46.76
7376;BME280;3728;42.266;24.944;2023-11-19T10:51:45;99503.84;;;12.19;46.74
7376;BME280;3728;42.266;24.944;2023-11-19T10:54:15;99516.31;;;12.22;46.71
7376;BME280;3728;42.266;24.944;2023-11-19T10:56:58;99504.28;;;12.21;47.16
7376;BME280;3728;42.266;24.944;2023-11-19T10:59:31;99505.50;;;12.32;46.80
7376;BME280;3728;42.266;24.944;2023-11-19T11:02:03;99518.69;;;12.87;45.71
7376;BME280;3728;42.266;24.944;2023-11-19T11:04:39;99508.59;;;13.07;44.82
7376;BME280;3728;42.266;24.944;2023-11-19T11:07:09;99507.06;;;13.35;44.70
7376;BME280;3728;42.266;24.944;2023-11-19T11:09:39;99511.19;;;13.15;44.72
7376;BME280;3728;42.266;24.944;2023-11-19T11:12:09;99515.44;;;12.90;44.87
7376;BME280;3728;42.266;24.944;2023-11-19T11:14:38;99528.06;;;13.06;45.30
7376;BME280;3728;42.266;24.944;2023-11-19T11:17:08;99526.69;;;13.08;44.87
7376;BME280;3728;42.266;24.944;2023-11-19T11:19:36;99533.94;;;13.02;45.18
7376;BME280;3728;42.266;24.944;2023-11-19T11:22:06;99517.63;;;13.26;43.96
7376;BME280;3728;42.266;24.944;2023-11-19T11:30:54;99513.28;;;13.30;44.23
7376;BME280;3728;42.266;24.944;2023-11-19T11:36:19;99508.69;;;13.48;44.40
7376;BME280;3728;42.266;24.944;2023-11-19T11:38:49;99492.53;;;13.29;44.09
7376;BME280;3728;42.266;24.944;2023-11-19T11:41:23;99489.81;;;13.46;43.97
7376;BME280;3728;42.266;24.944;2023-11-19T11:43:56;99481.81;;;13.13;45.51
7376;BME280;3728;42.266;24.944;2023-11-19T11:49:05;99498.44;;;13.55;44.33
7376;BME280;3728;42.266;24.944;2023-11-19T11:57:12;99498.22;;;13.89;42.07
7376;BME280;3728;42.266;24.944;2023-11-19T12:02:13;99474.31;;;13.53;43.28
7376;BME280;3728;42.266;24.944;2023-11-19T12:04:40;99465.44;;;13.37;43.11
7376;BME280;3728;42.266;24.944;2023-11-19T12:07:13;99473.97;;;13.34;43.26
7376;BME280;3728;42.266;24.944;2023-11-19T12:10:08;99494.69;;;12.97;43.70
7376;BME280;3728;42.266;24.944;2023-11-19T12:12:37;99484.38;;;12.84;43.92
7376;BME280;3728;42.266;24.944;2023-11-19T12:15:08;99487.47;;;12.77;44.19
7376;BME280;3728;42.266;24.944;2023-11-19T12:17:44;99501.06;;;12.79;43.09
7376;BME280;3728;42.266;24.944;2023-11-19T12:20:23;99491.09;;;12.64;44.09
7376;BME280;3728;42.266;24.944;2023-11-19T12:22:56;99475.78;;;12.58;44.64
7376;BME280;3728;42.266;24.944;2023-11-19T12:25:24;99463.25;;;12.63;44.48
7376;BME280;3728;42.266;24.944;2023-11-19T12:27:53;99472.34;;;12.74;44.69
7376;BME280;3728;42.266;24.944;2023-11-19T12:30:23;99471.59;;;12.74;44.18
7376;BME280;3728;42.266;24.944;2023-11-19T12:32:54;99460.09;;;12.87;44.93
7376;BME280;3728;42.266;24.944;2023-11-19T12:35:22;99459.38;;;13.16;44.25
7376;BME280;3728;42.266;24.944;2023-11-19T12:37:51;99460.91;;;13.17;44.00
7376;BME280;3728;42.266;24.944;2023-11-19T12:40:24;99455.56;;;12.96;43.71
7376;BME280;3728;42.266;24.944;2023-11-19T12:42:53;99447.28;;;12.85;43.26
7376;BME280;3728;42.266;24.944;2023-11-19T12:45:22;99450.56;;;13.41;42.77
7376;BME280;3728;42.266;24.944;2023-11-19T12:48:06;99440.00;;;13.20;42.65
7376;BME280;3728;42.266;24.944;2023-11-19T12:50:55;99433.47;;;12.88;43.53
7376;BME280;3728;42.266;24.944;2023-11-19T12:53:25;99447.69;;;12.96;44.12
7376;BME280;3728;42.266;24.944;2023-11-19T12:55:55;99442.38;;;13.13;43.20
7376;BME280;3728;42.266;24.944;2023-11-19T12:58:35;99449.22;;;12.97;42.83
7376;BME280;3728;42.266;24.944;2023-11-19T13:01:04;99436.16;;;12.80;44.09
7376;BME280;3728;42.266;24.944;2023-11-19T13:03:36;99423.28;;;12.87;43.85
7376;BME280;3728;42.266;24.944;2023-11-19T13:08:49;99432.63;;;12.67;43.65
7376;BME280;3728;42.266;24.944;2023-11-19T13:11:35;99434.84;;;12.57;44.73
7376;BME280;3728;42.266;24.944;2023-11-19T13:14:04;99431.69;;;12.80;43.71
7376;BME280;3728;42.266;24.944;2023-11-19T13:16:36;99430.19;;;13.00;43.59
7376;BME280;3728;42.266;24.944;2023-11-19T13:19:05;99422.00;;;13.01;43.57
7376;BME280;3728;42.266;24.944;2023-11-19T13:21:34;99416.78;;;13.22;43.13
7376;BME280;3728;42.266;24.944;2023-11-19T13:24:02;99408.69;;;13.07;43.61
7376;BME280;3728;42.266;24.944;2023-11-19T13:26:29;99404.84;;;13.25;42.77
7376;BME280;3728;42.266;24.944;2023-11-19T13:28:57;99402.28;;;13.16;42.74
7376;BME280;3728;42.266;24.944;2023-11-19T13:31:24;99392.91;;;12.98;42.82
7376;BME280;3728;42.266;24.944;2023-11-19T13:33:52;99397.81;;;12.79;42.82
7376;BME280;3728;42.266;24.944;2023-11-19T13:36:20;99402.66;;;12.68;43.80
7376;BME280;3728;42.266;24.944;2023-11-19T13:38:48;99388.63;;;12.64;43.20
7376;BME280;3728;42.266;24.944;2023-11-19T13:41:15;99384.78;;;12.62;43.22
7376;BME280;3728;42.266;24.944;2023-11-19T13:43:45;99393.03;;;12.34;43.83
7376;BME280;3728;42.266;24.944;2023-11-19T13:46:12;99383.03;;;12.28;43.91
7376;BME280;3728;42.266;24.944;2023-11-19T13:48:40;99381.09;;;12.54;43.91
7376;BME280;3728;42.266;24.944;2023-11-19T13:51:07;99395.59;;;12.89;43.13
7376;BME280;3728;42.266;24.944;2023-11-19T13:53:37;99395.56;;;12.60;43.13